KEHR

Details ICAO KEHR
Name HENDERSON CITY CO
Region United States
Timezone America/Chicago (UTC-6.0)
Plans Departing 0
Arriving 1
Stats Elevation 386 ft / 118 m (AMSL)
Location 37.807839° -87.685690°
Runways 1
Magnetic Variation 3.317° W
Sunrise 2017-12-12 12:58:30 UTC / 2017-12-12 06:58:30 Local
Sunset 2017-12-12 22:33:32 UTC / 2017-12-12 16:33:32 Local
Advertisement - Login to hide

Runways

ID Width Length Bearing (true) Bearing (mag) Surface Threshold Offset Overrun Length
09 100 ft / 30 m 5,492 ft / 1,674 m 88.34° 91.66° Asphalt 0 ft / 0 m 0 ft / 0 m
27 100 ft / 30 m 5,492 ft / 1,674 m 268.35° 271.67° Asphalt 0 ft / 0 m 0 ft / 0 m

Map

Weather


0- 5 10 15 20 25 30 35+ Temperature / ° C

Clouds and Precipitation
Forecast for 2017-12-12 12:00 UTC. Updated 2 hours ago

Ground ~20,000 ft ~40,000 ft Winds

METAR

KEHR 120756Z AUTO 32011KT 10SM OVC020 05/01 A2998 RMK AO2 SLP165 T00500011

TAF

Not found

Frequencies

Recorded 128.17 MHz AWOS 3
Approach 126.40 MHz EVANSVILLE APP/DEP
Unicom 122.80 MHz CTAF/UNICOM
Warning: Do not use this data for real-world aviation or navigation. No guarantee of current accuracy is given.